Maersk Antares — 9VHK7 — position and weather

sailwx.info

Track history (hours):
 
Tides and Currents Weather Stations Pressure Air Temp Water Temp Dewpoint Dewpoint Depression Visibility Wind Speed Wind Dir Waves Ship Positions

Maersk Antares

Last reported at 2018-May-18 10:31 UTC. Time now 2018-May-24 12:11 UTC.
Position N 34°57' E 140°13'.

Length 338 m; draft 14.6 m.

Type: Ship (hazmat cat A). MMSI: 565661000.

Date/timePositionNaut miles runAvg speedWind from/ knotsBaromVisibWave heightAir tempDewpointWater temp
2018-May-18 10:31N 34°57' E 140°13'722.2
2018-May-18 10:12N 34°53' E 140°06'1121.0
2018-May-18 09:40N 34°48' E 139°53'523.5
2018-May-18 09:28N 34°50' E 139°48'920.4
2018-May-18 09:00N 34°57' E 139°40'815.2
2018-May-18 08:30N 35°04' E 139°42'714.5
2018-May-18 08:00N 35°11' E 139°45'4 8.8
2018-May-18 07:30N 35°15' E 139°46'611.9
2018-May-18 07:00N 35°20' E 139°42'4 8.2
2018-May-18 06:30N 35°24' E 139°40'0 0.8
2018-May-18 06:00N 35°24' E 139°41'0 0.0
2018-May-18 05:30N 35°24' E 139°41'0 0.0
2018-May-18 05:00N 35°24' E 139°41'0 0.0
2018-May-18 04:27N 35°24' E 139°41'0 0.0
2018-May-18 04:00N 35°24' E 139°41'0 0.0
2018-May-18 03:30N 35°24' E 139°41'0 0.0
2018-May-18 03:00N 35°24' E 139°41'0 0.0
2018-May-18 02:30N 35°24' E 139°41'0 0.0
2018-May-18 02:00N 35°24' E 139°41'0 0.0
2018-May-18 01:30N 35°24' E 139°41'0 0.0
2018-May-18 01:00N 35°24' E 139°41'0 0.0
2018-May-18 00:30N 35°24' E 139°41'0 0.0
2018-May-18 00:00N 35°24' E 139°41'0 0.0
2018-May-17 23:30N 35°24' E 139°41'0 0.0
2018-May-17 23:00N 35°24' E 139°41'0 0.6
2018-May-17 22:31N 35°24' E 139°41'2 4.2
2018-May-17 22:01N 35°22' E 139°42'5 9.8
2018-May-17 21:30N 35°18' E 139°45'611.3
2018-May-17 21:01N 35°12' E 139°47'510.8
2018-May-17 20:31N 35°07' E 139°47'5 9.7
2018-May-17 20:00N 35°02' E 139°44'510.2
2018-May-17 19:30N 34°58' E 139°42'714.0
2018-May-17 19:00N 34°51' E 139°39'814.3
2018-May-17 18:26N 34°44' E 139°35'614.1
2018-May-17 18:00N 34°38' E 139°32'  
2018-May-15 05:31N 35°05' E 128°49'0 0.0
2018-May-15 03:55N 35°05' E 128°49'0 0.0
2018-May-15 03:25N 35°05' E 128°49'0 0.0
2018-May-15 02:55N 35°05' E 128°49'0 0.0
2018-May-15 02:25N 35°05' E 128°49'0 0.0
2018-May-15 01:55N 35°05' E 128°49'0 0.0
2018-May-15 01:28N 35°05' E 128°49'0 0.0
2018-May-15 00:55N 35°05' E 128°49'0 0.0
2018-May-15 00:01N 35°05' E 128°49'0 0.1
2018-May-14 23:55N 35°05' E 128°49'0 0.0
2018-May-14 23:13N 35°05' E 128°49'0 0.0
2018-May-14 22:55N 35°05' E 128°49'5 1.3
2018-May-14 18:58N 34°60' E 128°48'710.8
2018-May-14 18:19N 34°54' E 128°52'1110.9
2018-May-14 17:18N 34°42' E 128°52'517.9
2018-May-14 17:00N 34°37' E 128°51'917.4
2018-May-14 16:30N 34°29' E 128°48'1317.9
2018-May-14 15:46N 34°18' E 128°39'518.2
2018-May-14 15:29N 34°15' E 128°34'918.4
2018-May-14 15:00N 34°09' E 128°26'918.7
2018-May-14 14:30N 34°01' E 128°20'918.6
2018-May-14 14:00N 33°55' E 128°12'918.4
2018-May-14 13:30N 33°47' E 128°05'918.4
2018-May-14 13:00N 33°41' E 127°58'918.5
2018-May-14 12:30N 33°33' E 127°51'918.6
2018-May-14 12:00N 33°26' E 127°44'918.4
2018-May-14 11:30N 33°19' E 127°36'918.2
2018-May-14 11:00N 33°15' E 127°27'1018.5
2018-May-14 10:29N 33°08' E 127°19'2018.2
2018-May-14 09:24N 32°53' E 127°03'717.7
2018-May-14 09:00N 32°49' E 126°57'1018.0
2018-May-14 08:28N 32°43' E 126°48'21418.3
2018-May-13 20:44N 30°11' E 123°51'418.1
2018-May-13 20:30N 30°07' E 123°47'918.0
2018-May-13 19:59N 30°01' E 123°40'1617.8
2018-May-13 19:04N 29°48' E 123°27'121 2.3
2018-May-11 15:13N 31°49' E 123°19'28718.3
2018-May-10 23:31N 35°59' E 120°30'713.1
2018-May-10 23:01N 36°01' E 120°22'2 9.6
2018-May-10 22:46N 36°01' E 120°19'310.5
2018-May-10 22:28N 36°02' E 120°15'3 0.3
2018-May-10 12:20N 36°00' E 120°12'0 0.0
2018-May-10 10:48N 36°00' E 120°12'0 0.0
2018-May-10 10:27N 36°00' E 120°12'0 0.0
2018-May-10 09:54N 36°00' E 120°12'0 0.0
2018-May-10 09:23N 36°00' E 120°12'0 0.0
2018-May-10 08:06N 36°00' E 120°12'0 0.0
2018-May-10 07:43N 36°00' E 120°12'0 0.0
2018-May-10 04:09N 36°00' E 120°12'0 0.0
2018-May-10 03:52N 36°00' E 120°12'0 0.0
2018-May-10 03:18N 36°00' E 120°12'0 0.0
2018-May-10 02:46N 36°00' E 120°12'0 0.0
2018-May-10 02:29N 36°00' E 120°12'0 0.0
2018-May-10 01:51N 36°00' E 120°12'0 0.0
2018-May-10 01:01N 36°00' E 120°12'0 0.0
2018-May-10 01:00N 36°00' E 120°12'0 0.0
2018-May-10 00:03N 36°00' E 120°12'0 0.0
2018-May-09 23:48N 36°00' E 120°12'0 0.0
2018-May-09 23:30N 36°00' E 120°12'0 0.0
2018-May-09 22:55N 36°00' E 120°12'3 4.3
2018-May-09 22:14N 36°02' E 120°15'410.9
2018-May-09 21:55N 36°02' E 120°20'6 7.3
2018-May-09 21:09N 36°00' E 120°26'2 7.0
2018-May-09 20:55N 36°00' E 120°28'3 6.8
2018-May-09 20:30N 35°60' E 120°32'149 7.8
2018-May-09 01:18N 37°59' E 122°24'620.2
2018-May-09 01:00N 38°01' E 122°17'2720.3
2018-May-08 23:40N 38°14' E 121°46'620.1
2018-May-08 23:21N 38°16' E 121°39'720.1
2018-May-08 23:00N 38°19' E 121°31'1020.0
2018-May-08 22:30N 38°23' E 121°19'1019.5
2018-May-08 22:00N 38°27' E 121°08'916.4
2018-May-08 21:29N 38°31' E 120°58'611.3
2018-May-08 20:55N 38°33' E 120°50'510.9
2018-May-08 20:26N 38°34' E 120°44'819.0
2018-May-08 20:00N 38°35' E 120°33'  
Track history (hours):
 
Tides and Currents Weather Stations Pressure Air Temp Water Temp Dewpoint Dewpoint Depression Visibility Wind Speed Wind Dir Waves Ship Positions

Maersk Antares

Last reported at 2018-May-18 10:31 UTC. Time now 2018-May-24 12:11 UTC.
Position N 34°57' E 140°13'.

Length 338 m; draft 14.6 m.

Type: Ship (hazmat cat A). MMSI: 565661000.

Date/timePositionNaut miles runAvg speedWind from/ knotsBaromVisibWave heightAir tempDewpointWater temp
2018-May-18 10:31N 34°57' E 140°13'722.2
2018-May-18 10:12N 34°53' E 140°06'1121.0
2018-May-18 09:40N 34°48' E 139°53'523.5
2018-May-18 09:28N 34°50' E 139°48'920.4
2018-May-18 09:00N 34°57' E 139°40'815.2
2018-May-18 08:30N 35°04' E 139°42'714.5
2018-May-18 08:00N 35°11' E 139°45'4 8.8
2018-May-18 07:30N 35°15' E 139°46'611.9
2018-May-18 07:00N 35°20' E 139°42'4 8.2
2018-May-18 06:30N 35°24' E 139°40'0 0.8
2018-May-18 06:00N 35°24' E 139°41'0 0.0
2018-May-18 05:30N 35°24' E 139°41'0 0.0
2018-May-18 05:00N 35°24' E 139°41'0 0.0
2018-May-18 04:27N 35°24' E 139°41'0 0.0
2018-May-18 04:00N 35°24' E 139°41'0 0.0
2018-May-18 03:30N 35°24' E 139°41'0 0.0
2018-May-18 03:00N 35°24' E 139°41'0 0.0
2018-May-18 02:30N 35°24' E 139°41'0 0.0
2018-May-18 02:00N 35°24' E 139°41'0 0.0
2018-May-18 01:30N 35°24' E 139°41'0 0.0
2018-May-18 01:00N 35°24' E 139°41'0 0.0
2018-May-18 00:30N 35°24' E 139°41'0 0.0
2018-May-18 00:00N 35°24' E 139°41'0 0.0
2018-May-17 23:30N 35°24' E 139°41'0 0.0
2018-May-17 23:00N 35°24' E 139°41'0 0.6
2018-May-17 22:31N 35°24' E 139°41'2 4.2
2018-May-17 22:01N 35°22' E 139°42'5 9.8
2018-May-17 21:30N 35°18' E 139°45'611.3
2018-May-17 21:01N 35°12' E 139°47'510.8
2018-May-17 20:31N 35°07' E 139°47'5 9.7
2018-May-17 20:00N 35°02' E 139°44'510.2
2018-May-17 19:30N 34°58' E 139°42'714.0
2018-May-17 19:00N 34°51' E 139°39'814.3
2018-May-17 18:26N 34°44' E 139°35'614.1
2018-May-17 18:00N 34°38' E 139°32'  
2018-May-15 05:31N 35°05' E 128°49'0 0.0
2018-May-15 03:55N 35°05' E 128°49'0 0.0
2018-May-15 03:25N 35°05' E 128°49'0 0.0
2018-May-15 02:55N 35°05' E 128°49'0 0.0
2018-May-15 02:25N 35°05' E 128°49'0 0.0
2018-May-15 01:55N 35°05' E 128°49'0 0.0
2018-May-15 01:28N 35°05' E 128°49'0 0.0
2018-May-15 00:55N 35°05' E 128°49'0 0.0
2018-May-15 00:01N 35°05' E 128°49'0 0.1
2018-May-14 23:55N 35°05' E 128°49'0 0.0
2018-May-14 23:13N 35°05' E 128°49'0 0.0
2018-May-14 22:55N 35°05' E 128°49'5 1.3
2018-May-14 18:58N 34°60' E 128°48'710.8
2018-May-14 18:19N 34°54' E 128°52'1110.9
2018-May-14 17:18N 34°42' E 128°52'517.9
2018-May-14 17:00N 34°37' E 128°51'917.4
2018-May-14 16:30N 34°29' E 128°48'1317.9
2018-May-14 15:46N 34°18' E 128°39'518.2
2018-May-14 15:29N 34°15' E 128°34'918.4
2018-May-14 15:00N 34°09' E 128°26'918.7
2018-May-14 14:30N 34°01' E 128°20'918.6
2018-May-14 14:00N 33°55' E 128°12'918.4
2018-May-14 13:30N 33°47' E 128°05'918.4
2018-May-14 13:00N 33°41' E 127°58'918.5
2018-May-14 12:30N 33°33' E 127°51'918.6
2018-May-14 12:00N 33°26' E 127°44'918.4
2018-May-14 11:30N 33°19' E 127°36'918.2
2018-May-14 11:00N 33°15' E 127°27'1018.5
2018-May-14 10:29N 33°08' E 127°19'2018.2
2018-May-14 09:24N 32°53' E 127°03'717.7
2018-May-14 09:00N 32°49' E 126°57'1018.0
2018-May-14 08:28N 32°43' E 126°48'21418.3
2018-May-13 20:44N 30°11' E 123°51'418.1
2018-May-13 20:30N 30°07' E 123°47'918.0
2018-May-13 19:59N 30°01' E 123°40'1617.8
2018-May-13 19:04N 29°48' E 123°27'121 2.3
2018-May-11 15:13N 31°49' E 123°19'28718.3
2018-May-10 23:31N 35°59' E 120°30'713.1
2018-May-10 23:01N 36°01' E 120°22'2 9.6
2018-May-10 22:46N 36°01' E 120°19'310.5
2018-May-10 22:28N 36°02' E 120°15'3 0.3
2018-May-10 12:20N 36°00' E 120°12'0 0.0
2018-May-10 10:48N 36°00' E 120°12'0 0.0
2018-May-10 10:27N 36°00' E 120°12'0 0.0
2018-May-10 09:54N 36°00' E 120°12'0 0.0
2018-May-10 09:23N 36°00' E 120°12'0 0.0
2018-May-10 08:06N 36°00' E 120°12'0 0.0
2018-May-10 07:43N 36°00' E 120°12'0 0.0
2018-May-10 04:09N 36°00' E 120°12'0 0.0
2018-May-10 03:52N 36°00' E 120°12'0 0.0
2018-May-10 03:18N 36°00' E 120°12'0 0.0
2018-May-10 02:46N 36°00' E 120°12'0 0.0
2018-May-10 02:29N 36°00' E 120°12'0 0.0
2018-May-10 01:51N 36°00' E 120°12'0 0.0
2018-May-10 01:01N 36°00' E 120°12'0 0.0
2018-May-10 01:00N 36°00' E 120°12'0 0.0
2018-May-10 00:03N 36°00' E 120°12'0 0.0
2018-May-09 23:48N 36°00' E 120°12'0 0.0
2018-May-09 23:30N 36°00' E 120°12'0 0.0
2018-May-09 22:55N 36°00' E 120°12'3 4.3
2018-May-09 22:14N 36°02' E 120°15'410.9
2018-May-09 21:55N 36°02' E 120°20'6 7.3
2018-May-09 21:09N 36°00' E 120°26'2 7.0
2018-May-09 20:55N 36°00' E 120°28'3 6.8
2018-May-09 20:30N 35°60' E 120°32'149 7.8
2018-May-09 01:18N 37°59' E 122°24'620.2
2018-May-09 01:00N 38°01' E 122°17'2720.3
2018-May-08 23:40N 38°14' E 121°46'620.1
2018-May-08 23:21N 38°16' E 121°39'720.1
2018-May-08 23:00N 38°19' E 121°31'1020.0
2018-May-08 22:30N 38°23' E 121°19'1019.5
2018-May-08 22:00N 38°27' E 121°08'916.4
2018-May-08 21:29N 38°31' E 120°58'611.3
2018-May-08 20:55N 38°33' E 120°50'510.9
2018-May-08 20:26N 38°34' E 120°44'819.0
2018-May-08 20:00N 38°35' E 120°33'  

Dump ship's entire track history